Time;durP1;ratioP1;P1;durP2;ratioP2;P2;SDS_P1;SDS_P2;PMS_P1;PMS_P2;Temp;Humidity;BMP_temperature;BMP_pressure;BME280_temperature;BME280_humidity;BME280_pressure;Samples;Min_cycle;Max_cycle;Signal;HPM_P1;HPM_P2
2022/07/27 00:01:47;;;;;;;1.87;1.77;;;19.50;97.70;;;;;;5071930;28;20479;-92
2022/07/27 00:04:14;;;;;;;1.70;1.60;;;19.50;97.90;;;;;;5070007;28;20482;-91
2022/07/27 00:06:41;;;;;;;2.50;2.20;;;19.50;97.90;;;;;;5056563;28;20468;-91
2022/07/27 00:09:07;;;;;;;2.37;1.43;;;19.40;97.70;;;;;;5055621;28;21114;-92
2022/07/27 00:11:35;;;;;;;2.73;1.30;;;19.40;97.80;;;;;;5054657;28;20483;-92
2022/07/27 00:14:02;;;;;;;3.23;1.60;;;19.40;98.00;;;;;;5054368;28;21031;-92
2022/07/27 00:16:29;;;;;;;1.90;1.80;;;19.40;97.80;;;;;;5054983;28;20499;-92
2022/07/27 00:18:56;;;;;;;3.37;2.20;;;19.40;98.30;;;;;;5054447;28;20459;-92
2022/07/27 00:21:25;;;;;;;3.03;1.90;;;19.40;98.40;;;;;;5055596;28;20459;-91
2022/07/27 00:23:52;;;;;;;2.90;1.77;;;19.40;98.10;;;;;;5056715;28;20571;-92
2022/07/27 00:26:19;;;;;;;1.80;1.67;;;19.40;98.20;;;;;;5057684;28;20482;-91
2022/07/27 00:28:47;;;;;;;2.30;1.70;;;19.40;98.40;;;;;;5069483;28;20437;-91
2022/07/27 00:31:14;;;;;;;1.73;1.63;;;19.40;98.30;;;;;;5069914;28;20803;-91
2022/07/27 00:33:40;;;;;;;1.70;1.60;;;19.40;98.50;;;;;;5053808;28;20545;-91
2022/07/27 00:36:08;;;;;;;2.73;1.90;;;19.30;98.30;;;;;;5054124;28;20460;-91
2022/07/27 00:38:34;;;;;;;2.33;1.70;;;19.40;98.50;;;;;;5053874;28;20456;-91
2022/07/27 00:41:01;;;;;;;2.30;1.87;;;19.40;98.60;;;;;;5053373;28;20488;-91
2022/07/27 00:43:28;;;;;;;2.10;1.77;;;19.40;98.40;;;;;;5053638;28;20492;-91
2022/07/27 00:45:56;;;;;;;4.37;1.77;;;19.40;98.50;;;;;;5054362;28;20936;-91
2022/07/27 00:48:23;;;;;;;2.33;1.60;;;19.40;98.60;;;;;;5053383;28;20488;-91
2022/07/27 00:50:49;;;;;;;1.93;1.70;;;19.40;98.60;;;;;;5054147;28;20525;-91
2022/07/27 00:53:16;;;;;;;1.60;1.50;;;19.40;98.90;;;;;;5054291;28;20476;-92
2022/07/27 00:55:44;;;;;;;2.10;1.77;;;19.40;99.00;;;;;;5054028;28;20957;-91
2022/07/27 00:58:10;;;;;;;1.80;1.70;;;19.40;99.00;;;;;;5054697;28;20530;-91
2022/07/27 01:00:38;;;;;;;3.00;2.80;;;19.40;99.20;;;;;;5054562;28;20460;-92
2022/07/27 01:03:07;;;;;;;2.33;1.83;;;19.40;99.10;;;;;;5054245;28;20507;-92
2022/07/27 01:05:36;;;;;;;2.57;1.70;;;19.40;99.10;;;;;;5054341;28;20459;-92
2022/07/27 01:08:04;;;;;;;2.30;2.10;;;19.30;98.90;;;;;;5055232;28;20525;-91
2022/07/27 01:10:31;;;;;;;1.93;1.53;;;19.30;98.90;;;;;;5054682;28;20925;-91
2022/07/27 01:12:58;;;;;;;1.87;1.77;;;19.30;99.10;;;;;;5055381;28;20480;-93
2022/07/27 01:15:25;;;;;;;2.00;1.90;;;19.30;99.10;;;;;;5055184;28;20498;-92
2022/07/27 01:17:51;;;;;;;2.90;1.87;;;19.20;99.10;;;;;;5055240;28;20466;-90
2022/07/27 01:20:19;;;;;;;2.40;2.10;;;19.20;99.00;;;;;;5054774;28;20460;-91
2022/07/27 01:22:47;;;;;;;2.20;1.73;;;19.20;99.20;;;;;;5055126;28;20498;-91
2022/07/27 01:25:14;;;;;;;2.20;2.00;;;19.20;99.20;;;;;;5054519;28;20460;-91
2022/07/27 01:27:41;;;;;;;2.10;1.80;;;19.20;99.30;;;;;;5054682;28;20467;-91
2022/07/27 01:32:50;;;;;;;2.33;2.13;;;19.10;99.20;;;;;;5055599;28;20547;-91
2022/07/27 01:35:16;;;;;;;1.43;1.33;;;19.10;99.40;;;;;;5055757;28;20452;-91
2022/07/27 01:37:43;;;;;;;2.60;2.40;;;19.10;99.60;;;;;;5056405;28;20462;-90
2022/07/27 01:40:12;;;;;;;2.10;1.90;;;19.10;99.70;;;;;;5059059;28;20463;-91
2022/07/27 01:42:39;;;;;;;2.53;2.33;;;19.00;99.90;;;;;;5072209;28;20491;-91
2022/07/27 01:45:07;;;;;;;2.40;2.00;;;19.00;99.80;;;;;;5070880;28;21164;-92
2022/07/27 01:47:34;;;;;;;2.07;1.87;;;19.00;99.80;;;;;;5057938;28;20455;-91
2022/07/27 01:50:01;;;;;;;2.40;1.90;;;19.00;99.80;;;;;;5057068;28;20469;-91
2022/07/27 01:52:27;;;;;;;2.13;2.03;;;18.90;99.90;;;;;;5056874;28;20695;-91
2022/07/27 01:54:54;;;;;;;2.13;2.03;;;18.90;99.90;;;;;;5056739;28;20467;-91
2022/07/27 01:57:22;;;;;;;2.10;1.90;;;18.90;99.90;;;;;;5056816;28;20472;-92
2022/07/27 01:59:49;;;;;;;2.40;2.20;;;18.80;99.90;;;;;;5056258;28;20468;-91
2022/07/27 02:02:15;;;;;;;2.60;2.40;;;18.80;99.90;;;;;;5056405;28;20459;-90
2022/07/27 02:04:42;;;;;;;4.10;2.57;;;18.80;99.90;;;;;;5056389;28;20463;-91
2022/07/27 02:07:09;;;;;;;1.90;1.80;;;18.70;99.90;;;;;;5056279;28;20456;-91
2022/07/27 02:09:36;;;;;;;2.10;2.00;;;18.70;99.90;;;;;;5055920;28;20467;-91
2022/07/27 02:14:48;;;;;;;1.83;1.73;;;18.70;99.90;;;;;;5056357;28;20478;-91
2022/07/27 02:17:15;;;;;;;2.03;1.90;;;18.60;99.90;;;;;;5056019;28;20451;-91
2022/07/27 02:19:42;;;;;;;2.37;2.17;;;18.60;99.90;;;;;;5055819;28;20471;-91
2022/07/27 02:22:09;;;;;;;3.10;1.80;;;18.60;99.90;;;;;;5056013;28;20456;-90
2022/07/27 02:24:38;;;;;;;2.10;1.90;;;18.60;99.90;;;;;;5055785;28;20835;-91
2022/07/27 02:27:05;;;;;;;2.40;2.20;;;18.60;99.90;;;;;;5055911;28;20500;-91
2022/07/27 02:29:31;;;;;;;2.23;2.03;;;18.50;99.90;;;;;;5055146;28;20467;-90
2022/07/27 02:31:59;;;;;;;2.40;2.20;;;18.50;99.90;;;;;;5055978;28;20463;-91
2022/07/27 02:34:26;;;;;;;2.13;1.77;;;18.50;99.90;;;;;;5055584;28;20486;-91
2022/07/27 02:36:53;;;;;;;2.33;2.13;;;18.40;99.90;;;;;;5056078;28;20472;-91
2022/07/27 02:39:19;;;;;;;2.90;2.10;;;18.30;99.90;;;;;;5055589;28;20887;-91
2022/07/27 02:41:48;;;;;;;2.90;2.33;;;18.30;99.90;;;;;;5055432;28;20464;-90
2022/07/27 02:44:16;;;;;;;2.47;2.27;;;18.30;99.90;;;;;;5055385;28;20527;-91
2022/07/27 02:46:43;;;;;;;2.17;1.97;;;18.20;99.90;;;;;;5055952;28;20456;-91
2022/07/27 02:49:11;;;;;;;2.60;2.40;;;18.20;99.90;;;;;;5055494;28;20464;-90
2022/07/27 02:51:38;;;;;;;2.53;2.33;;;18.20;99.90;;;;;;5055886;28;20467;-91
2022/07/27 02:54:04;;;;;;;2.50;2.30;;;18.20;99.90;;;;;;5054267;28;20520;-91
2022/07/27 02:56:31;;;;;;;2.40;2.20;;;18.20;99.90;;;;;;5055825;28;20467;-90
2022/07/27 02:58:58;;;;;;;4.00;2.30;;;18.20;99.90;;;;;;5055867;28;20460;-91
2022/07/27 03:01:24;;;;;;;2.20;2.00;;;18.30;99.90;;;;;;5056019;28;20459;-91
2022/07/27 03:03:51;;;;;;;2.40;2.10;;;18.30;99.90;;;;;;5056061;28;20572;-91
2022/07/27 03:06:19;;;;;;;2.23;2.03;;;18.30;99.90;;;;;;5054962;28;20490;-91
2022/07/27 03:08:46;;;;;;;2.50;2.30;;;18.20;99.90;;;;;;5054863;28;20456;-91
2022/07/27 03:11:15;;;;;;;2.50;2.30;;;18.20;99.90;;;;;;5054939;28;20839;-92
2022/07/27 03:13:42;;;;;;;2.00;1.90;;;18.20;99.90;;;;;;5054803;28;20522;-91
2022/07/27 03:16:08;;;;;;;3.00;2.07;;;18.00;99.90;;;;;;5055816;28;20467;-90
2022/07/27 03:18:35;;;;;;;3.60;2.23;;;18.00;99.90;;;;;;5054826;28;20566;-91
2022/07/27 03:21:02;;;;;;;3.00;2.37;;;17.90;99.90;;;;;;5055092;28;20462;-90
2022/07/27 03:23:30;;;;;;;2.30;2.10;;;17.90;99.90;;;;;;5054731;28;20495;-90
2022/07/27 03:25:57;;;;;;;2.37;2.17;;;17.90;99.90;;;;;;5055572;28;20463;-91
2022/07/27 03:28:24;;;;;;;2.10;2.00;;;17.80;99.90;;;;;;5054830;28;20821;-91
2022/07/27 03:30:50;;;;;;;2.90;2.33;;;17.80;99.90;;;;;;5055542;28;20464;-90
2022/07/27 03:33:17;;;;;;;2.87;2.20;;;17.80;99.90;;;;;;5055848;28;20481;-90
2022/07/27 03:35:44;;;;;;;2.50;2.30;;;17.80;99.90;;;;;;5032209;28;20973;-91
2022/07/27 03:38:11;;;;;;;5.53;2.50;;;17.80;99.90;;;;;;5025508;28;20458;-91
2022/07/27 03:40:40;;;;;;;2.60;2.40;;;17.80;99.90;;;;;;5022741;28;20992;-91
2022/07/27 03:43:06;;;;;;;2.40;2.20;;;17.70;99.90;;;;;;5023751;28;20488;-91
2022/07/27 03:45:33;;;;;;;2.33;2.13;;;17.70;99.90;;;;;;5026135;28;20458;-92
2022/07/27 03:48:00;;;;;;;3.77;2.57;;;17.70;99.90;;;;;;5024097;28;20989;-91
2022/07/27 03:50:27;;;;;;;2.07;1.97;;;17.60;99.90;;;;;;5024374;28;20458;-90
2022/07/27 03:52:54;;;;;;;2.50;2.20;;;17.60;99.90;;;;;;5022993;28;20470;-91
2022/07/27 03:55:24;;;;;;;3.07;2.00;;;17.50;99.90;;;;;;5024442;28;20989;-92
2022/07/27 03:57:52;;;;;;;2.60;2.40;;;17.50;99.90;;;;;;5028383;28;20469;-90
2022/07/27 04:00:19;;;;;;;2.70;2.50;;;17.40;99.90;;;;;;5024791;28;20462;-91
2022/07/27 04:02:46;;;;;;;2.50;2.30;;;17.40;99.90;;;;;;5022269;28;20476;-90
2022/07/27 04:05:13;;;;;;;3.60;2.57;;;17.30;99.90;;;;;;5023043;28;20466;-91
2022/07/27 04:07:40;;;;;;;2.70;2.50;;;17.30;99.90;;;;;;5022892;28;20466;-92
2022/07/27 04:10:08;;;;;;;2.97;2.77;;;17.30;99.90;;;;;;5021419;28;20837;-91
2022/07/27 04:12:36;;;;;;;3.60;2.60;;;17.30;99.90;;;;;;5022558;28;20464;-89
2022/07/27 04:15:05;;;;;;;2.73;2.50;;;17.30;99.90;;;;;;5023881;28;20190;-89
2022/07/27 04:17:31;;;;;;;3.00;2.80;;;17.40;99.90;;;;;;5021946;28;20464;-91
2022/07/27 04:19:58;;;;;;;3.73;2.70;;;17.40;99.90;;;;;;5022774;28;20884;-89
2022/07/27 04:22:25;;;;;;;2.60;2.40;;;17.40;99.90;;;;;;5021997;28;20477;-90
2022/07/27 04:24:51;;;;;;;2.80;2.60;;;17.50;99.90;;;;;;5022709;28;20490;-90
2022/07/27 04:27:18;;;;;;;3.73;3.07;;;17.50;99.90;;;;;;5022899;28;20456;-90
2022/07/27 04:29:45;;;;;;;5.10;2.60;;;17.60;99.90;;;;;;5013052;28;20462;-89
2022/07/27 04:32:13;;;;;;;3.07;2.87;;;17.60;99.90;;;;;;5013268;28;20894;-89
2022/07/27 04:34:39;;;;;;;5.33;2.63;;;17.50;99.90;;;;;;5013054;28;20978;-90
2022/07/27 04:37:06;;;;;;;3.43;3.13;;;17.50;99.90;;;;;;5014211;28;20462;-89
2022/07/27 04:39:33;;;;;;;2.60;2.40;;;17.50;99.90;;;;;;5013971;28;20462;-90
2022/07/27 04:42:00;;;;;;;2.83;2.63;;;17.50;99.90;;;;;;5013997;28;20466;-89
2022/07/27 04:44:26;;;;;;;3.37;3.00;;;17.60;99.90;;;;;;5013850;28;20493;-89
2022/07/27 04:46:53;;;;;;;3.30;2.43;;;17.60;99.90;;;;;;5016048;28;20469;-90
2022/07/27 04:49:21;;;;;;;3.67;2.90;;;17.70;99.90;;;;;;5013804;28;20492;-91
2022/07/27 04:51:48;;;;;;;2.87;2.57;;;17.70;99.90;;;;;;5014469;28;20466;-92
2022/07/27 04:54:15;;;;;;;3.10;2.80;;;17.70;99.90;;;;;;5016659;28;20862;-89
2022/07/27 04:56:42;;;;;;;2.57;2.37;;;17.70;99.90;;;;;;5016632;28;20457;-90
2022/07/27 04:59:09;;;;;;;2.80;2.10;;;17.70;99.90;;;;;;5015076;28;20462;-90
2022/07/27 05:01:35;;;;;;;4.17;2.57;;;17.70;99.90;;;;;;5013904;28;20472;-90
2022/07/27 05:04:03;;;;;;;4.13;2.50;;;17.60;99.90;;;;;;5013698;28;20532;-89
2022/07/27 05:06:52;;;;;;;2.93;2.67;;;17.70;99.90;;;;;;5016709;28;20481;-91
2022/07/27 05:09:19;;;;;;;2.67;2.47;;;17.70;99.90;;;;;;5014618;28;20560;-89
2022/07/27 05:11:46;;;;;;;3.20;2.93;;;17.70;99.90;;;;;;5015432;28;20542;-90
2022/07/27 05:14:12;;;;;;;4.60;3.23;;;17.70;99.90;;;;;;5116143;23;21005;-69
2022/07/27 05:16:39;;;;;;;2.73;2.53;;;17.70;99.90;;;;;;5090266;28;20470;-69
2022/07/27 05:19:06;;;;;;;5.10;2.40;;;17.70;99.90;;;;;;5090205;28;20490;-68
2022/07/27 05:21:33;;;;;;;2.83;2.63;;;17.70;99.90;;;;;;5090084;28;20449;-70
2022/07/27 05:24:01;;;;;;;2.97;2.77;;;17.70;99.90;;;;;;5090494;28;20485;-70
2022/07/27 05:26:28;;;;;;;3.27;3.00;;;17.70;99.90;;;;;;5090409;28;21019;-70
2022/07/27 05:28:54;;;;;;;2.63;2.43;;;17.80;99.90;;;;;;5090540;28;20469;-70
2022/07/27 05:31:21;;;;;;;3.73;3.33;;;17.80;99.90;;;;;;5090130;28;20976;-70
2022/07/27 05:33:48;;;;;;;3.27;2.97;;;17.80;99.90;;;;;;5090551;28;20487;-70
2022/07/27 05:36:14;;;;;;;3.40;3.03;;;17.80;99.90;;;;;;5090462;28;20489;-70
2022/07/27 05:38:41;;;;;;;3.80;3.40;;;17.80;99.90;;;;;;5090452;28;20549;-70
2022/07/27 05:41:10;;;;;;;3.30;2.70;;;17.70;99.90;;;;;;5089848;28;20462;-70
2022/07/27 05:43:37;;;;;;;3.10;2.80;;;17.80;99.90;;;;;;5090193;28;20481;-70
2022/07/27 05:46:04;;;;;;;3.33;3.03;;;17.80;99.90;;;;;;5090319;28;20567;-69
2022/07/27 05:48:31;;;;;;;4.70;2.90;;;17.80;99.90;;;;;;5090592;28;20832;-70
2022/07/27 05:50:58;;;;;;;3.50;3.03;;;17.80;99.90;;;;;;5089676;28;20466;-69
2022/07/27 05:53:25;;;;;;;3.10;2.80;;;17.80;99.90;;;;;;5090492;28;20896;-70
2022/07/27 05:55:51;;;;;;;3.33;3.03;;;17.80;99.90;;;;;;5090281;28;20832;-70
2022/07/27 05:58:20;;;;;;;3.13;2.83;;;17.90;99.90;;;;;;5090351;28;20458;-70
2022/07/27 06:00:46;;;;;;;5.00;3.60;;;17.90;99.90;;;;;;5089957;28;20824;-70
2022/07/27 06:03:13;;;;;;;3.63;3.33;;;17.90;99.90;;;;;;5090037;28;20473;-69
2022/07/27 06:05:40;;;;;;;3.40;3.10;;;18.00;99.90;;;;;;5090225;28;20478;-70
2022/07/27 06:08:07;;;;;;;3.50;2.50;;;18.00;99.90;;;;;;5090011;28;20469;-70
2022/07/27 06:10:36;;;;;;;3.67;3.23;;;18.10;99.90;;;;;;5090182;28;20496;-70
2022/07/27 06:13:04;;;;;;;3.00;2.80;;;18.10;99.90;;;;;;5090844;28;20462;-70
2022/07/27 06:15:32;;;;;;;2.63;2.43;;;18.10;99.90;;;;;;5090472;28;20478;-70
2022/07/27 06:17:59;;;;;;;3.07;2.77;;;18.20;99.90;;;;;;5089866;28;20458;-70
2022/07/27 06:20:26;;;;;;;2.93;2.73;;;18.20;99.90;;;;;;5089428;28;20458;-70
2022/07/27 06:22:55;;;;;;;2.83;2.63;;;18.30;99.90;;;;;;5090162;28;20516;-70
2022/07/27 06:25:23;;;;;;;10.23;2.97;;;18.40;99.90;;;;;;5089785;28;20577;-69
2022/07/27 06:27:51;;;;;;;3.47;2.30;;;18.40;99.90;;;;;;5090135;28;20548;-70
2022/07/27 06:30:21;;;;;;;3.60;3.30;;;18.50;99.90;;;;;;5092936;28;20466;-70
2022/07/27 06:32:49;;;;;;;3.57;3.27;;;18.50;99.90;;;;;;5094302;28;20462;-70
2022/07/27 06:35:16;;;;;;;3.30;3.00;;;18.60;99.90;;;;;;5093167;28;20485;-70
2022/07/27 06:37:43;;;;;;;3.83;3.43;;;18.60;99.90;;;;;;5093491;28;20472;-70
2022/07/27 06:40:12;;;;;;;3.37;2.90;;;18.70;99.90;;;;;;5092849;28;20515;-71
2022/07/27 06:42:39;;;;;;;3.30;2.63;;;18.80;99.90;;;;;;5093643;28;20560;-70
2022/07/27 06:45:07;;;;;;;3.60;2.80;;;18.80;99.90;;;;;;5093388;28;20504;-70
2022/07/27 06:47:34;;;;;;;3.73;3.43;;;18.90;99.90;;;;;;5093597;28;20549;-69
2022/07/27 06:50:03;;;;;;;3.30;3.00;;;19.00;99.90;;;;;;5092784;28;20463;-70
2022/07/27 06:52:30;;;;;;;2.73;2.53;;;19.00;99.90;;;;;;5093464;28;20462;-70
2022/07/27 06:54:56;;;;;;;3.00;2.70;;;19.10;99.90;;;;;;5093018;28;20462;-70
2022/07/27 06:57:23;;;;;;;3.53;3.23;;;19.10;99.90;;;;;;5093372;28;20457;-70
2022/07/27 06:59:50;;;;;;;3.80;3.13;;;19.20;99.90;;;;;;5092310;28;20470;-70
2022/07/27 07:02:17;;;;;;;3.23;3.03;;;19.20;99.90;;;;;;5093018;28;20921;-70
2022/07/27 07:04:44;;;;;;;3.27;2.80;;;19.20;99.90;;;;;;5092671;28;20486;-70
2022/07/27 07:07:12;;;;;;;3.40;3.00;;;19.30;99.90;;;;;;5092675;28;20482;-70
2022/07/27 07:09:38;;;;;;;3.07;2.83;;;19.30;99.90;;;;;;5092521;28;20484;-70
2022/07/27 07:12:06;;;;;;;3.20;3.00;;;19.40;99.90;;;;;;5092551;28;20465;-69
2022/07/27 07:14:33;;;;;;;3.53;2.90;;;19.40;99.90;;;;;;5092820;28;21004;-72
2022/07/27 07:17:00;;;;;;;2.90;2.70;;;19.50;99.90;;;;;;5084545;28;20544;-70
2022/07/27 07:19:29;;;;;;;3.00;2.80;;;19.50;99.90;;;;;;5091076;28;20945;-74
2022/07/27 07:21:56;;;;;;;3.00;2.70;;;19.50;99.90;;;;;;5091427;28;20470;-74
2022/07/27 07:24:24;;;;;;;3.10;2.80;;;19.60;99.90;;;;;;5090885;28;21035;-72
2022/07/27 07:26:51;;;;;;;3.67;2.93;;;19.70;99.90;;;;;;5091615;28;20493;-75
2022/07/27 07:29:18;;;;;;;2.80;2.60;;;19.70;99.90;;;;;;5091191;28;20466;-70
2022/07/27 07:31:45;;;;;;;3.07;2.77;;;19.70;99.90;;;;;;5091232;28;20470;-74
2022/07/27 07:34:12;;;;;;;2.73;2.53;;;19.70;99.90;;;;;;5091150;28;20459;-72
2022/07/27 07:36:39;;;;;;;3.47;3.17;;;19.80;99.90;;;;;;5090801;28;20548;-70
2022/07/27 07:39:07;;;;;;;3.27;2.97;;;19.90;99.90;;;;;;5090398;28;20458;-72
2022/07/27 07:41:36;;;;;;;3.70;3.00;;;20.00;99.90;;;;;;5090544;28;20462;-74
2022/07/27 07:44:05;;;;;;;3.40;3.07;;;20.00;99.90;;;;;;5090907;28;20562;-75
2022/07/27 07:46:33;;;;;;;3.70;2.83;;;20.10;99.90;;;;;;5090772;28;21012;-75
2022/07/27 07:49:00;;;;;;;3.30;3.00;;;20.10;99.90;;;;;;5090753;28;20856;-76
2022/07/27 07:51:27;;;;;;;3.30;2.77;;;20.20;99.90;;;;;;5090971;28;20462;-74
2022/07/27 07:53:54;;;;;;;3.47;3.17;;;20.30;99.90;;;;;;5090534;28;20846;-76
2022/07/27 07:56:21;;;;;;;3.30;3.10;;;20.30;99.90;;;;;;5090678;28;20486;-76
2022/07/27 07:58:50;;;;;;;2.83;2.63;;;20.30;99.90;;;;;;5090445;28;20466;-76
2022/07/27 08:01:17;;;;;;;3.03;2.83;;;20.30;99.90;;;;;;5089344;28;20954;-76
2022/07/27 08:03:44;;;;;;;3.33;3.03;;;20.30;99.90;;;;;;5090866;28;20462;-77
2022/07/27 08:06:11;;;;;;;3.30;3.00;;;20.40;99.90;;;;;;5089792;28;20854;-76
2022/07/27 08:08:39;;;;;;;6.73;3.23;;;20.40;99.90;;;;;;5090135;28;20463;-76
2022/07/27 08:11:06;;;;;;;4.70;3.10;;;20.40;99.90;;;;;;5089571;28;20458;-75
2022/07/27 08:13:33;;;;;;;3.10;2.90;;;20.40;99.90;;;;;;5090379;28;20953;-75
2022/07/27 08:16:02;;;;;;;3.50;3.20;;;20.40;99.90;;;;;;5089563;28;20536;-76
2022/07/27 08:18:28;;;;;;;3.00;2.70;;;20.40;99.90;;;;;;5090038;28;20949;-70
2022/07/27 08:20:55;;;;;;;3.20;2.90;;;20.40;99.90;;;;;;5089584;28;20485;-72
2022/07/27 08:23:22;;;;;;;3.47;3.17;;;20.50;99.90;;;;;;5089280;28;20458;-70
2022/07/27 08:25:49;;;;;;;2.80;2.60;;;20.50;99.90;;;;;;5090020;28;20573;-70
2022/07/27 08:28:15;;;;;;;4.90;3.23;;;20.50;99.90;;;;;;5090051;28;20495;-70
2022/07/27 08:30:42;;;;;;;3.50;3.20;;;20.70;99.90;;;;;;5088908;28;20467;-70
2022/07/27 08:33:11;;;;;;;5.10;2.90;;;20.70;99.90;;;;;;5089921;28;20961;-76
2022/07/27 08:35:37;;;;;;;3.27;3.00;;;20.80;99.90;;;;;;5096293;28;20505;-77
2022/07/27 08:38:08;;;;;;;3.37;3.07;;;20.70;99.90;;;;;;5092332;28;20496;-74
2022/07/27 08:40:35;;;;;;;3.40;3.10;;;20.80;99.90;;;;;;5089635;28;20811;-75
2022/07/27 08:43:03;;;;;;;6.17;2.80;;;20.90;99.90;;;;;;5089841;28;20472;-75
2022/07/27 08:45:30;;;;;;;3.73;3.30;;;21.00;99.90;;;;;;5089479;28;20947;-75
2022/07/27 08:47:57;;;;;;;3.37;3.07;;;21.10;99.90;;;;;;5089083;28;21256;-76
2022/07/27 08:50:26;;;;;;;3.10;2.90;;;21.20;99.90;;;;;;5089050;28;20473;-70
2022/07/27 08:52:59;;;;;;;4.13;3.40;;;21.40;99.90;;;;;;5089143;28;20486;-70
2022/07/27 08:55:27;;;;;;;2.90;2.70;;;21.50;99.90;;;;;;5083343;28;20576;-70
2022/07/27 08:57:54;;;;;;;2.97;2.77;;;21.60;99.90;;;;;;5070719;28;20470;-77
2022/07/27 09:00:22;;;;;;;5.20;3.07;;;21.80;99.90;;;;;;5069432;28;20466;-71
2022/07/27 09:02:49;;;;;;;2.90;2.70;;;22.00;99.90;;;;;;5069788;28;20962;-70
2022/07/27 09:05:16;;;;;;;3.00;2.80;;;22.20;99.90;;;;;;5069987;28;20506;-75
2022/07/27 09:07:44;;;;;;;3.10;2.87;;;22.30;99.90;;;;;;5069901;28;20458;-71
2022/07/27 09:10:12;;;;;;;7.07;3.47;;;22.30;99.90;;;;;;5070430;28;20460;-77
2022/07/27 09:12:39;;;;;;;3.47;3.13;;;22.30;99.90;;;;;;5070890;28;20459;-76
2022/07/27 09:15:09;;;;;;;3.13;2.87;;;22.40;99.90;;;;;;5070094;28;20465;-74
2022/07/27 09:17:37;;;;;;;3.03;2.83;;;22.50;99.90;;;;;;5070040;28;20468;-74
2022/07/27 09:20:06;;;;;;;4.10;3.27;;;22.50;99.90;;;;;;5069244;28;20489;-74
2022/07/27 09:22:45;;;;;;;3.47;3.17;;;22.50;99.90;;;;;;5070559;28;20463;-74
2022/07/27 09:25:14;;;;;;;3.50;2.93;;;22.60;99.90;;;;;;5069009;28;20484;-72
2022/07/27 09:27:42;;;;;;;3.13;2.87;;;22.70;99.90;;;;;;5069986;28;20462;-73
2022/07/27 09:30:11;;;;;;;3.07;2.87;;;22.80;99.90;;;;;;5069307;28;20470;-74
2022/07/27 09:32:38;;;;;;;2.87;2.67;;;22.80;99.90;;;;;;5069115;28;20553;-74
2022/07/27 09:35:20;;;;;;;3.13;2.93;;;23.00;99.90;;;;;;5069975;28;20460;-75
2022/07/27 09:37:49;;;;;;;3.30;3.10;;;23.00;99.90;;;;;;5069428;28;20467;-75
2022/07/27 09:40:17;;;;;;;4.23;2.57;;;23.00;99.90;;;;;;5068995;28;20476;-71
2022/07/27 09:42:44;;;;;;;3.00;2.63;;;23.00;99.90;;;;;;5070143;28;20465;-71
2022/07/27 09:45:31;;;;;;;7.70;2.70;;;23.00;99.90;;;;;;5083552;28;20820;-70
2022/07/27 09:48:13;;;;;;;3.60;2.73;;;22.90;99.90;;;;;;5090153;28;20469;-76
2022/07/27 09:50:42;;;;;;;2.63;2.43;;;22.90;99.90;;;;;;5090301;28;20465;-76
2022/07/27 09:53:22;;;;;;;3.33;2.80;;;22.90;99.90;;;;;;5091352;28;20460;-76
2022/07/27 09:56:00;;;;;;;3.33;3.03;;;22.90;99.90;;;;;;5090186;28;20588;-76
2022/07/27 09:58:47;;;;;;;3.60;3.20;;;23.00;99.90;;;;;;5090080;28;20505;-71
2022/07/27 10:01:17;;;;;;;3.20;2.90;;;23.10;99.90;;;;;;5089177;28;20464;-69
2022/07/27 10:03:45;;;;;;;3.17;2.70;;;23.10;99.90;;;;;;5090904;28;20460;-75
2022/07/27 10:06:12;;;;;;;2.90;2.70;;;23.10;99.90;;;;;;5093761;28;20503;-70
2022/07/27 10:08:43;;;;;;;4.00;3.60;;;23.10;99.90;;;;;;5093619;28;20460;-70
2022/07/27 10:11:09;;;;;;;2.80;2.60;;;23.20;99.90;;;;;;5084765;28;20916;-71
2022/07/27 10:13:37;;;;;;;3.40;3.10;;;23.20;99.90;;;;;;5072692;28;20477;-70
2022/07/27 10:16:05;;;;;;;2.47;2.17;;;23.20;99.90;;;;;;5072333;28;21153;-71
2022/07/27 10:18:56;;;;;;;2.80;2.60;;;23.40;99.90;;;;;;5073072;28;20467;-71
2022/07/27 10:21:24;;;;;;;3.20;2.77;;;23.40;99.90;;;;;;5066772;28;20463;-70
2022/07/27 10:23:57;;;;;;;2.80;2.50;;;23.50;99.90;;;;;;5072975;28;20492;-71
2022/07/27 10:26:31;;;;;;;3.37;2.70;;;23.50;99.90;;;;;;5072728;28;20641;-70
2022/07/27 10:29:01;;;;;;;3.93;3.53;;;23.50;99.90;;;;;;5072202;28;20461;-70
2022/07/27 10:31:29;;;;;;;3.33;3.03;;;23.60;99.90;;;;;;5072506;28;21090;-71
2022/07/27 10:33:59;;;;;;;3.03;2.77;;;23.90;99.50;;;;;;5072141;28;20998;-69
2022/07/27 10:36:50;;;;;;;3.13;2.83;;;24.00;99.90;;;;;;5072713;28;20480;-71
2022/07/27 10:39:29;;;;;;;2.90;2.70;;;24.10;99.40;;;;;;5071395;28;20970;-70
2022/07/27 10:42:18;;;;;;;3.17;2.87;;;24.00;99.40;;;;;;5072769;28;20838;-71
2022/07/27 10:45:03;;;;;;;2.50;2.30;;;23.90;99.40;;;;;;5073374;28;20466;-70
2022/07/27 10:47:36;;;;;;;3.17;2.43;;;23.90;99.80;;;;;;5072792;28;20466;-71
2022/07/27 10:50:31;;;;;;;2.90;2.70;;;23.80;99.80;;;;;;5072080;28;20465;-70
2022/07/27 10:53:01;;;;;;;2.93;2.73;;;23.90;99.00;;;;;;5072553;28;20469;-75
2022/07/27 10:55:46;;;;;;;3.33;3.03;;;23.80;99.10;;;;;;5072170;28;20485;-75
2022/07/27 10:58:48;;;;;;;3.30;2.40;;;23.80;98.40;;;;;;5072310;28;20572;-72
2022/07/27 11:01:17;;;;;;;2.30;2.10;;;23.80;98.90;;;;;;5078510;28;20461;-78
2022/07/27 11:03:51;;;;;;;3.27;2.97;;;24.00;99.60;;;;;;5072484;28;20457;-72
2022/07/27 11:06:29;;;;;;;2.80;2.60;;;24.30;98.80;;;;;;5072265;28;21008;-75
2022/07/27 11:08:58;;;;;;;2.93;2.73;;;24.60;98.20;;;;;;5072108;28;20488;-74
2022/07/27 11:11:26;;;;;;;2.90;2.60;;;24.90;98.00;;;;;;5071247;28;20462;-75
2022/07/27 11:13:56;;;;;;;2.80;2.60;;;25.10;97.90;;;;;;5070997;28;20568;-75
2022/07/27 11:16:23;;;;;;;2.83;2.63;;;25.00;97.70;;;;;;5071218;28;20523;-74
2022/07/27 11:18:55;;;;;;;2.70;1.80;;;24.70;97.80;;;;;;5071431;28;20468;-76
2022/07/27 11:21:24;;;;;;;2.60;2.40;;;24.70;96.50;;;;;;5071647;28;20461;-75
2022/07/27 11:23:52;;;;;;;2.47;2.27;;;24.60;97.10;;;;;;5071607;28;20820;-72
2022/07/27 11:26:20;;;;;;;2.40;2.20;;;24.50;97.10;;;;;;5071410;28;20517;-70
2022/07/27 11:28:48;;;;;;;1.97;1.87;;;24.40;95.90;;;;;;5071459;28;20463;-70
2022/07/27 11:31:15;;;;;;;2.73;2.53;;;24.30;96.80;;;;;;5070695;28;21239;-76
2022/07/27 11:33:57;;;;;;;2.87;2.67;;;24.20;97.10;;;;;;5071985;28;20471;-70
2022/07/27 11:36:35;;;;;;;3.20;2.70;;;24.10;97.40;;;;;;5071382;28;20550;-75
2022/07/27 11:39:04;;;;;;;2.80;2.60;;;24.20;98.00;;;;;;5055627;28;20516;-73
2022/07/27 11:41:33;;;;;;;3.43;2.67;;;24.10;97.40;;;;;;5051156;28;20473;-75
2022/07/27 11:44:03;;;;;;;2.60;2.40;;;24.10;98.30;;;;;;5051386;28;20470;-75
2022/07/27 11:46:31;;;;;;;2.53;2.33;;;24.30;98.00;;;;;;5051210;28;20484;-74
2022/07/27 11:49:00;;;;;;;2.77;2.57;;;24.50;96.70;;;;;;5058297;28;21112;-71
2022/07/27 11:51:28;;;;;;;3.20;2.17;;;24.70;98.80;;;;;;5069766;28;20462;-74
2022/07/27 11:53:59;;;;;;;2.40;2.20;;;24.90;97.10;;;;;;5070123;28;21144;-74
2022/07/27 11:56:28;;;;;;;2.47;2.27;;;25.10;95.50;;;;;;5070512;28;20481;-75
2022/07/27 11:59:01;;;;;;;2.60;2.07;;;25.20;96.30;;;;;;5070222;28;20462;-75
2022/07/27 12:01:30;;;;;;;1.90;1.80;;;25.50;96.90;;;;;;5069848;28;20465;-75
2022/07/27 12:04:20;;;;;;;2.00;1.80;;;25.60;95.40;;;;;;5070056;28;20561;-75
2022/07/27 12:06:54;;;;;;;1.90;1.80;;;25.60;95.10;;;;;;5063361;28;20494;-73
2022/07/27 12:09:21;;;;;;;2.00;1.90;;;25.70;94.90;;;;;;5069494;28;20462;-76
2022/07/27 12:11:57;;;;;;;2.40;2.20;;;25.80;95.30;;;;;;5070604;28;20463;-74
2022/07/27 12:14:34;;;;;;;2.27;2.07;;;25.60;94.80;;;;;;5069956;28;20481;-75
2022/07/27 12:17:09;;;;;;;3.20;3.00;;;25.30;95.10;;;;;;5070049;28;20481;-72
2022/07/27 12:19:36;;;;;;;2.10;1.90;;;25.10;95.10;;;;;;5069655;28;20465;-73
2022/07/27 12:22:03;;;;;;;2.47;2.27;;;24.90;95.30;;;;;;5070261;28;20466;-73
2022/07/27 12:24:36;;;;;;;2.30;2.10;;;24.70;95.80;;;;;;5070140;28;20497;-73
2022/07/27 12:27:11;;;;;;;2.40;2.20;;;24.60;96.40;;;;;;5068295;28;20500;-71
2022/07/27 12:29:59;;;;;;;2.40;2.20;;;24.60;96.60;;;;;;5069820;28;20465;-75
2022/07/27 12:32:26;;;;;;;2.10;2.00;;;24.60;95.70;;;;;;5069962;28;20480;-75
2022/07/27 12:34:54;;;;;;;2.40;2.13;;;24.60;95.70;;;;;;5070329;28;20477;-74
2022/07/27 12:37:21;;;;;;;2.20;2.00;;;24.50;95.70;;;;;;5069459;28;21003;-75
2022/07/27 12:39:49;;;;;;;2.17;1.97;;;24.40;96.40;;;;;;5069318;28;20818;-75
2022/07/27 12:42:16;;;;;;;3.23;2.10;;;24.30;95.10;;;;;;5069636;28;20456;-70
2022/07/27 12:44:44;;;;;;;1.70;1.60;;;24.30;95.10;;;;;;5069425;28;20983;-71
2022/07/27 12:50:01;;;;;;;1.93;1.83;;;24.70;95.90;;;;;;5068867;28;20449;-71
2022/07/27 12:52:28;;;;;;;2.20;2.00;;;25.00;95.20;;;;;;5069496;28;20458;-72
2022/07/27 12:54:55;;;;;;;2.13;1.93;;;25.30;95.90;;;;;;5069509;28;20510;-71
2022/07/27 12:57:22;;;;;;;3.37;1.93;;;25.70;94.80;;;;;;5069749;28;20481;-71
2022/07/27 12:59:49;;;;;;;1.97;1.87;;;26.00;95.30;;;;;;5068681;28;20546;-71
2022/07/27 13:02:17;;;;;;;2.87;2.20;;;26.30;93.70;;;;;;5070764;28;20525;-71
2022/07/27 13:04:44;;;;;;;2.23;2.00;;;26.30;93.40;;;;;;5070278;28;20471;-71